createdAt,value
2018-12-20T00:02:38.026Z,171.47
2018-12-20T00:05:20.891Z,172.60
2018-12-20T00:08:02.591Z,169.23
2018-12-20T00:10:50.797Z,178.67
2018-12-20T00:13:33.406Z,166.60
2018-12-20T00:16:16.270Z,174.93
2018-12-20T00:18:59.269Z,182.07
2018-12-20T00:21:44.858Z,171.27
2018-12-20T00:24:26.129Z,170.23
2018-12-20T00:27:08.914Z,181.03
2018-12-20T00:29:50.240Z,176.07
2018-12-20T00:32:32.478Z,180.83
2018-12-20T00:35:17.702Z,166.87
2018-12-20T00:38:01.156Z,169.67
2018-12-20T00:40:46.439Z,169.53
2018-12-20T00:43:33.237Z,177.37
2018-12-20T00:46:16.321Z,163.20
2018-12-20T00:48:58.631Z,167.30
2018-12-20T00:51:43.234Z,169.40
2018-12-20T00:54:27.357Z,167.87
2018-12-20T00:57:10.803Z,170.10
2018-12-20T00:59:53.663Z,165.07
2018-12-20T01:02:37.619Z,164.80
2018-12-20T01:05:20.359Z,165.27
2018-12-20T01:08:02.704Z,167.60
2018-12-20T01:10:46.295Z,167.57
2018-12-20T01:13:28.494Z,169.80
2018-12-20T01:16:11.122Z,161.17
2018-12-20T01:18:55.198Z,157.53
2018-12-20T01:21:38.313Z,160.43
2018-12-20T01:24:21.788Z,163.93
2018-12-20T01:27:04.642Z,165.70
2018-12-20T01:29:48.173Z,173.37
2018-12-20T01:32:30.462Z,174.63
2018-12-20T01:35:12.040Z,179.63
2018-12-20T01:37:56.655Z,181.30
2018-12-20T01:40:37.716Z,195.90
2018-12-20T01:43:24.653Z,195.97
2018-12-20T01:46:08.505Z,201.63
2018-12-20T01:48:51.326Z,200.47
2018-12-20T01:51:36.801Z,187.80
2018-12-20T01:54:19.381Z,192.90
2018-12-20T01:57:03.542Z,195.90
2018-12-20T01:59:47.707Z,199.20
2018-12-20T02:02:31.154Z,196.27
2018-12-20T02:05:14.327Z,188.57
2018-12-20T02:07:56.400Z,193.03
2018-12-20T02:10:42.691Z,200.77
2018-12-20T02:13:25.320Z,206.20
2018-12-20T02:16:09.779Z,208.97
2018-12-20T02:18:56.481Z,237.10
2018-12-20T02:21:38.767Z,234.07
2018-12-20T02:24:23.817Z,232.40
2018-12-20T02:27:07.634Z,229.53
2018-12-20T02:29:49.656Z,240.27
2018-12-20T02:32:34.182Z,256.43
2018-12-20T02:35:16.638Z,259.03
2018-12-20T02:38:01.720Z,253.13
2018-12-20T02:40:45.650Z,252.60
2018-12-20T02:43:27.298Z,239.20
2018-12-20T02:46:11.229Z,245.80
2018-12-20T02:48:53.813Z,247.40
2018-12-20T02:51:41.749Z,236.27
2018-12-20T02:54:25.415Z,240.03
2018-12-20T02:57:11.673Z,247.00
2018-12-20T02:59:56.655Z,256.80
2018-12-20T03:02:43.824Z,255.73
2018-12-20T03:05:31.396Z,255.30
2018-12-20T03:08:13.561Z,243.53
2018-12-20T03:10:56.103Z,258.67
2018-12-20T03:13:39.322Z,259.20
2018-12-20T03:16:24.525Z,258.33
2018-12-20T03:19:08.742Z,261.90
2018-12-20T03:21:54.804Z,266.87
2018-12-20T03:24:37.853Z,277.50
2018-12-20T03:27:22.197Z,282.20
2018-12-20T03:30:03.847Z,266.83
2018-12-20T03:32:49.778Z,273.27
2018-12-20T03:35:34.693Z,274.60
2018-12-20T03:38:18.442Z,267.40
2018-12-20T03:41:01.910Z,278.23
2018-12-20T03:43:47.828Z,363.30
2018-12-20T03:46:30.698Z,287.37
2018-12-20T03:49:17.523Z,303.17
2018-12-20T03:52:01.421Z,288.37
2018-12-20T03:54:51.508Z,296.77
2018-12-20T03:57:39.820Z,283.00
2018-12-20T04:00:22.913Z,266.50
2018-12-20T04:03:05.291Z,272.70
2018-12-20T04:05:51.522Z,257.90
2018-12-20T04:08:36.902Z,255.13
2018-12-20T04:11:21.764Z,264.17
2018-12-20T04:14:07.043Z,271.63
2018-12-20T04:16:52.621Z,248.80
2018-12-20T04:19:36.593Z,238.93
2018-12-20T04:22:21.454Z,248.63
2018-12-20T04:25:06.623Z,245.30
2018-12-20T04:27:51.543Z,227.73
2018-12-20T04:30:33.396Z,219.57
2018-12-20T04:33:17.992Z,205.27
2018-12-20T04:36:03.212Z,204.43
2018-12-20T04:38:56.840Z,216.70
2018-12-20T04:41:40.383Z,218.13
2018-12-20T04:44:28.504Z,220.67
2018-12-20T04:47:10.696Z,217.70
2018-12-20T04:49:55.826Z,224.23
2018-12-20T04:52:38.820Z,222.43
2018-12-20T04:55:26.272Z,223.97
2018-12-20T04:58:11.987Z,222.57
2018-12-20T05:00:56.999Z,225.50
2018-12-20T05:03:40.769Z,238.70
2018-12-20T05:06:28.126Z,224.70
2018-12-20T05:09:16.190Z,243.13
2018-12-20T05:12:01.577Z,326.00
2018-12-20T05:14:46.211Z,321.60
2018-12-20T05:17:34.756Z,267.83
2018-12-20T05:20:20.515Z,295.90
2018-12-20T05:23:06.701Z,234.73
2018-12-20T05:25:53.800Z,223.37
2018-12-20T05:28:35.555Z,210.20
2018-12-20T05:31:19.978Z,212.10
2018-12-20T05:34:07.829Z,214.63
2018-12-20T05:36:50.893Z,210.90
2018-12-20T05:39:36.002Z,214.93
2018-12-20T05:42:22.655Z,213.57
2018-12-20T05:45:07.745Z,217.07
2018-12-20T05:47:52.898Z,225.50
2018-12-20T05:50:43.021Z,213.77
2018-12-20T05:53:28.107Z,249.37
2018-12-20T05:56:10.317Z,231.40
2018-12-20T05:58:53.668Z,212.73
2018-12-20T06:01:39.871Z,219.10
2018-12-20T06:04:29.664Z,207.13
2018-12-20T06:07:16.845Z,211.80
2018-12-20T06:10:02.839Z,216.13
2018-12-20T06:12:51.705Z,208.10
2018-12-20T06:15:46.851Z,220.07
2018-12-20T06:18:40.295Z,209.10
2018-12-20T06:21:25.630Z,209.40
2018-12-20T06:24:10.603Z,210.70
2018-12-20T06:26:55.905Z,213.63
2018-12-20T06:29:39.858Z,207.17
2018-12-20T06:32:22.875Z,194.33
2018-12-20T06:35:10.201Z,183.23
2018-12-20T06:38:02.878Z,176.20
2018-12-20T06:40:50.951Z,169.57
2018-12-20T06:43:36.749Z,166.83
2018-12-20T06:46:24.944Z,156.30
2018-12-20T06:49:12.832Z,154.80
2018-12-20T06:59:19.819Z,137.53
2018-12-20T07:02:02.917Z,136.00
2018-12-20T07:04:49.493Z,133.53
2018-12-20T07:07:32.934Z,138.60
2018-12-20T07:13:11.896Z,154.83
2018-12-20T07:15:58.235Z,164.13
2018-12-20T07:36:54.711Z,157.10
2018-12-20T07:39:40.949Z,147.93
2018-12-20T07:42:25.562Z,174.20
2018-12-20T07:45:10.573Z,153.23
2018-12-20T07:47:57.687Z,157.93
2018-12-20T07:50:43.923Z,154.73
2018-12-20T07:53:29.428Z,150.23
2018-12-20T07:56:13.782Z,146.60
2018-12-20T08:17:08.443Z,146.00
2018-12-20T08:20:02.276Z,148.40
2018-12-20T08:25:41.107Z,144.10
2018-12-20T08:28:26.748Z,146.80
2018-12-20T08:31:11.014Z,150.60
2018-12-20T08:33:59.406Z,144.07
2018-12-20T08:54:48.214Z,130.77
2018-12-20T08:57:30.700Z,134.60
2018-12-20T09:00:19.662Z,148.23
2018-12-20T09:03:09.856Z,131.57
2018-12-20T09:05:55.147Z,130.37
2018-12-20T09:08:39.530Z,127.00
2018-12-20T09:11:24.761Z,131.33
2018-12-20T09:14:09.469Z,123.10
2018-12-20T09:34:56.675Z,123.03
2018-12-20T09:37:41.995Z,124.50
2018-12-20T09:40:36.066Z,119.83
2018-12-20T09:43:24.869Z,120.43
2018-12-20T09:49:03.942Z,105.53
2018-12-20T09:51:50.809Z,109.47
2018-12-20T10:12:36.093Z,123.17
2018-12-20T10:15:19.900Z,125.77
2018-12-20T10:18:05.530Z,126.33
2018-12-20T10:20:51.416Z,124.60
2018-12-20T10:23:35.771Z,119.90
2018-12-20T10:26:21.930Z,119.87
2018-12-20T10:29:14.006Z,123.37
2018-12-20T10:32:10.107Z,121.30
2018-12-20T10:52:56.622Z,152.00
2018-12-20T10:55:49.082Z,170.30
2018-12-20T10:58:34.897Z,164.77
2018-12-20T11:01:22.890Z,160.20
2018-12-20T11:07:08.544Z,170.03
2018-12-20T11:10:02.681Z,147.23
2018-12-20T11:30:48.081Z,145.10
2018-12-20T11:33:48.770Z,154.73
2018-12-20T11:36:36.501Z,187.63
2018-12-20T11:39:27.871Z,231.60
2018-12-20T11:42:11.988Z,196.07
2018-12-20T11:44:56.579Z,182.57
2018-12-20T11:47:45.874Z,194.63
2018-12-20T11:54:55.020Z,164.13
2018-12-20T11:57:39.686Z,166.77
2018-12-20T12:00:24.083Z,165.63
2018-12-20T12:03:06.187Z,162.93
2018-12-20T12:05:57.319Z,163.23
2018-12-20T12:08:41.197Z,158.00
2018-12-20T12:11:25.794Z,165.53
2018-12-20T12:14:12.233Z,222.23
2018-12-20T12:16:59.165Z,175.87
2018-12-20T12:22:32.289Z,175.37
2018-12-20T12:25:14.945Z,442.27
2018-12-20T12:27:57.153Z,214.40
2018-12-20T12:33:29.182Z,180.40
2018-12-20T12:38:58.178Z,168.60
2018-12-20T12:41:41.018Z,380.17
2018-12-20T12:44:23.172Z,172.97
2018-12-20T12:47:12.226Z,215.00
2018-12-20T12:49:56.587Z,166.53
2018-12-20T12:52:39.196Z,139.10
2018-12-20T12:58:13.598Z,133.33
2018-12-20T13:00:57.668Z,133.03
2018-12-20T13:03:43.557Z,130.70
2018-12-20T13:06:36.960Z,128.47
2018-12-20T13:09:27.205Z,132.37
2018-12-20T13:12:17.225Z,131.27
2018-12-20T13:14:59.086Z,137.90
2018-12-20T13:17:45.010Z,172.50
2018-12-20T13:20:28.771Z,156.77
2018-12-20T13:23:16.200Z,150.53
2018-12-20T13:25:58.099Z,146.47
2018-12-20T13:28:43.914Z,145.73
2018-12-20T13:31:38.153Z,149.37
2018-12-20T13:34:25.350Z,149.00
2018-12-20T13:37:15.951Z,148.30
2018-12-20T13:40:03.296Z,146.67
2018-12-20T13:42:56.279Z,146.20
2018-12-20T13:45:41.682Z,141.80
2018-12-20T13:48:25.170Z,145.17
2018-12-20T13:51:12.303Z,148.13
2018-12-20T13:54:00.416Z,148.90
2018-12-20T13:56:52.130Z,148.87
2018-12-20T13:59:38.201Z,155.70
2018-12-20T14:05:25.581Z,156.27
2018-12-20T14:08:15.290Z,154.80
2018-12-20T14:11:03.334Z,154.13
2018-12-20T14:13:53.814Z,151.23
2018-12-20T14:16:41.850Z,153.37
2018-12-20T14:19:27.137Z,153.03
2018-12-20T14:22:14.245Z,163.10
2018-12-20T14:25:00.700Z,158.53
2018-12-20T14:27:55.269Z,154.67
2018-12-20T14:30:43.301Z,149.87
2018-12-20T14:33:32.816Z,150.00
2018-12-20T14:36:25.270Z,151.90
2018-12-20T14:39:12.274Z,152.00
2018-12-20T14:45:11.751Z,158.03
2018-12-20T14:48:03.401Z,153.60
2018-12-20T14:50:48.133Z,152.07
2018-12-20T14:53:36.181Z,151.10
2018-12-20T14:56:21.288Z,147.80
2018-12-20T15:02:05.829Z,150.47
2018-12-20T15:04:55.349Z,152.07
2018-12-20T15:07:44.677Z,148.07
2018-12-20T15:10:34.817Z,286.93
2018-12-20T15:16:21.790Z,147.77
2018-12-20T15:19:11.419Z,146.33
2018-12-20T15:22:00.204Z,149.37
2018-12-20T15:27:51.364Z,146.47
2018-12-20T15:30:43.716Z,143.77
2018-12-20T15:33:33.446Z,141.57
2018-12-20T15:36:25.359Z,146.47
2018-12-20T15:39:16.325Z,146.87
2018-12-20T15:42:01.712Z,147.10
2018-12-20T15:44:48.214Z,146.17
2018-12-20T15:50:34.125Z,146.03
2018-12-20T15:53:24.941Z,147.30
2018-12-20T15:56:10.774Z,142.90
2018-12-20T15:58:55.823Z,148.87
2018-12-20T16:01:48.148Z,143.30
2018-12-20T16:04:34.288Z,146.67
2018-12-20T16:10:17.350Z,153.57
2018-12-20T16:13:02.094Z,147.70
2018-12-20T16:15:49.841Z,151.67
2018-12-20T16:18:38.363Z,149.23
2018-12-20T16:21:32.367Z,150.53
2018-12-20T16:24:21.367Z,152.00
2018-12-20T16:27:04.797Z,153.70
2018-12-20T16:29:53.147Z,150.13
2018-12-20T16:32:40.267Z,153.87
2018-12-20T16:35:27.355Z,153.63
2018-12-20T16:38:11.122Z,156.40
2018-12-20T16:40:54.818Z,152.93
2018-12-20T16:43:41.371Z,151.83
2018-12-20T16:46:26.291Z,148.43
2018-12-20T16:49:13.694Z,150.60
2018-12-20T16:52:02.068Z,156.17
2018-12-20T16:54:47.039Z,151.83
2018-12-20T16:57:32.438Z,147.47
2018-12-20T17:00:20.498Z,143.70
2018-12-20T17:03:04.460Z,142.40
2018-12-20T17:05:48.183Z,140.90
2018-12-20T17:08:30.337Z,141.40
2018-12-20T17:11:16.275Z,142.53
2018-12-20T17:13:59.967Z,141.83
2018-12-20T17:16:42.797Z,137.37
2018-12-20T17:19:29.343Z,139.20
2018-12-20T17:22:11.235Z,142.50
2018-12-20T17:24:56.238Z,135.27
2018-12-20T17:27:42.507Z,137.47
2018-12-20T17:30:27.069Z,140.20
2018-12-20T17:33:10.466Z,141.43
2018-12-20T17:35:58.794Z,141.70
2018-12-20T17:38:45.957Z,138.73
2018-12-20T17:41:38.925Z,142.03
2018-12-20T17:44:24.808Z,144.40
2018-12-20T17:47:06.349Z,146.53
2018-12-20T17:49:55.626Z,143.53
2018-12-20T17:52:38.176Z,141.27
2018-12-20T17:55:25.305Z,140.13
2018-12-20T17:58:10.247Z,137.80
2018-12-20T18:00:52.468Z,145.10
2018-12-20T18:03:43.031Z,140.13
2018-12-20T18:06:25.489Z,142.33
2018-12-20T18:09:11.374Z,139.60
2018-12-20T18:11:54.449Z,140.63
2018-12-20T18:14:37.883Z,137.20
2018-12-20T18:17:20.392Z,133.43
2018-12-20T18:20:04.556Z,133.87
2018-12-20T18:22:49.097Z,136.27
2018-12-20T18:25:33.593Z,136.33
2018-12-20T18:28:16.007Z,135.40
2018-12-20T18:30:58.177Z,127.30
2018-12-20T18:33:41.620Z,135.03
2018-12-20T18:36:25.343Z,136.23
2018-12-20T18:39:11.897Z,131.23
2018-12-20T18:41:52.824Z,131.03
2018-12-20T18:44:35.997Z,129.43
2018-12-20T18:47:18.514Z,130.13
2018-12-20T18:50:02.205Z,130.57
2018-12-20T18:52:43.174Z,128.90
2018-12-20T18:55:27.218Z,130.73
2018-12-20T18:58:10.033Z,134.37
2018-12-20T19:00:52.541Z,138.97
2018-12-20T19:03:37.282Z,135.00
2018-12-20T19:06:23.123Z,140.37
2018-12-20T19:09:05.600Z,134.70
2018-12-20T19:15:44.551Z,126.17
2018-12-20T19:18:36.511Z,130.27
2018-12-20T19:21:19.509Z,135.07
2018-12-20T19:24:03.510Z,145.50
2018-12-20T19:26:50.992Z,155.20
2018-12-20T19:29:39.385Z,140.57
2018-12-20T19:53:36.537Z,141.10
2018-12-20T19:56:28.211Z,146.33
2018-12-20T19:59:10.981Z,143.97
2018-12-20T20:02:04.317Z,139.97
2018-12-20T20:04:50.550Z,136.70
2018-12-20T20:07:38.484Z,139.93
2018-12-20T20:10:22.220Z,142.90
2018-12-20T20:34:54.628Z,134.03
2018-12-20T20:37:37.519Z,134.07
2018-12-20T20:40:21.517Z,130.57
2018-12-20T20:43:04.071Z,134.17
2018-12-20T20:45:46.587Z,135.33
2018-12-20T20:48:31.551Z,139.90
2018-12-20T20:51:16.524Z,134.77
2018-12-20T21:12:02.186Z,133.37
2018-12-20T21:14:52.597Z,138.07
2018-12-20T21:17:44.155Z,131.87
2018-12-20T21:20:30.822Z,135.70
2018-12-20T21:23:18.358Z,132.60
2018-12-20T21:26:11.604Z,137.00
2018-12-20T21:28:59.031Z,138.33
2018-12-20T21:31:44.053Z,131.50
2018-12-20T21:55:17.735Z,139.13
2018-12-20T21:58:01.657Z,142.87
2018-12-20T22:00:47.440Z,140.03
2018-12-20T22:03:31.481Z,146.00
2018-12-20T22:06:19.793Z,140.33
2018-12-20T22:09:11.559Z,144.03
2018-12-20T22:11:56.176Z,142.57
2018-12-20T22:14:42.109Z,141.10
2018-12-20T22:17:26.664Z,138.90
2018-12-20T22:20:12.320Z,134.00
2018-12-20T22:23:01.315Z,141.43
2018-12-20T22:25:45.312Z,141.17
2018-12-20T22:28:27.563Z,141.43
2018-12-20T22:31:12.533Z,146.23
2018-12-20T22:33:58.426Z,142.50
2018-12-20T22:36:45.236Z,138.73
2018-12-20T22:39:28.722Z,144.33
2018-12-20T22:42:14.256Z,145.53
2018-12-20T22:45:03.517Z,146.60
2018-12-20T22:47:47.257Z,140.50
2018-12-20T22:50:29.154Z,137.40
2018-12-20T22:53:10.101Z,140.17
2018-12-20T22:55:54.483Z,140.00
2018-12-20T22:58:39.142Z,138.67
2018-12-20T23:01:22.577Z,138.97
2018-12-20T23:04:07.237Z,138.70
2018-12-20T23:06:50.055Z,136.90
2018-12-20T23:09:35.637Z,140.00
2018-12-20T23:12:18.214Z,141.53
2018-12-20T23:15:00.037Z,139.93
2018-12-20T23:17:45.278Z,143.37
2018-12-20T23:20:28.400Z,151.97
2018-12-20T23:23:13.414Z,149.13
2018-12-20T23:25:54.721Z,146.47
2018-12-20T23:28:38.083Z,146.90
2018-12-20T23:31:22.482Z,145.53
2018-12-20T23:34:04.696Z,144.57
2018-12-20T23:36:54.268Z,139.30
2018-12-20T23:39:39.791Z,141.33
2018-12-20T23:42:23.287Z,141.43
2018-12-20T23:45:04.803Z,145.80
2018-12-20T23:47:48.610Z,150.00
2018-12-20T23:50:32.655Z,144.17
2018-12-20T23:53:15.121Z,147.00
2018-12-20T23:56:00.461Z,351.07
2018-12-20T23:58:44.151Z,194.87
